createdAt,value
2023-04-10T00:00:38.367Z,20.60
2023-04-10T00:03:08.606Z,21.03
2023-04-10T00:05:38.756Z,21.57
2023-04-10T00:08:08.600Z,20.70
2023-04-10T00:10:38.478Z,20.80
2023-04-10T00:13:10.938Z,22.07
2023-04-10T00:15:40.967Z,21.00
2023-04-10T00:18:10.932Z,22.07
2023-04-10T00:20:41.690Z,20.63
2023-04-10T00:23:11.712Z,20.90
2023-04-10T00:25:41.758Z,21.37
2023-04-10T00:28:14.669Z,20.87
2023-04-10T00:30:44.558Z,21.30
2023-04-10T00:33:16.693Z,22.30
2023-04-10T00:35:46.603Z,21.13
2023-04-10T00:38:16.989Z,22.03
2023-04-10T00:40:46.831Z,22.43
2023-04-10T00:43:21.707Z,22.47
2023-04-10T00:45:51.756Z,21.63
2023-04-10T00:48:21.833Z,21.80
2023-04-10T00:50:51.778Z,23.30
2023-04-10T00:53:21.624Z,22.57
2023-04-10T00:55:53.348Z,23.40
2023-04-10T00:58:27.029Z,23.40
2023-04-10T01:00:57.355Z,22.77
2023-04-10T01:03:28.364Z,22.73
2023-04-10T01:06:08.825Z,23.43
2023-04-10T01:08:48.690Z,24.23
2023-04-10T01:11:27.064Z,25.17
2023-04-10T01:14:08.307Z,23.77
2023-04-10T01:16:48.454Z,24.87
2023-04-10T01:19:29.233Z,25.17
2023-04-10T01:21:59.732Z,24.90
2023-04-10T01:24:44.743Z,24.30
2023-04-10T01:27:31.315Z,25.60
2023-04-10T01:30:05.729Z,25.90
2023-04-10T01:32:38.907Z,25.03
2023-04-10T01:35:11.614Z,26.13
2023-04-10T01:37:46.007Z,27.23
2023-04-10T01:40:21.791Z,26.83
2023-04-10T01:42:55.677Z,25.93
2023-04-10T01:45:31.904Z,27.47
2023-04-10T01:48:01.968Z,26.60
2023-04-10T01:50:33.453Z,27.67
2023-04-10T01:53:05.113Z,27.53
2023-04-10T01:55:37.034Z,26.70
2023-04-10T01:58:07.792Z,27.43
2023-04-10T02:00:44.494Z,27.13
2023-04-10T02:03:14.802Z,27.63
2023-04-10T02:05:55.534Z,27.77
2023-04-10T02:08:44.023Z,27.20
2023-04-10T02:11:21.438Z,29.33
2023-04-10T02:13:53.678Z,28.50
2023-04-10T02:16:27.885Z,29.53
2023-04-10T02:18:59.366Z,28.60
2023-04-10T02:21:30.095Z,29.50
2023-04-10T02:24:01.406Z,30.80
2023-04-10T02:26:31.338Z,29.77
2023-04-10T02:29:01.290Z,30.37
2023-04-10T02:31:36.792Z,30.37
2023-04-10T02:34:07.448Z,33.23
2023-04-10T02:36:38.228Z,31.17
2023-04-10T02:39:12.816Z,34.67
2023-04-10T02:41:42.657Z,32.03
2023-04-10T02:44:12.511Z,34.90
2023-04-10T02:46:44.993Z,34.13
2023-04-10T02:49:14.887Z,33.10
2023-04-10T02:51:45.480Z,33.23
2023-04-10T02:54:15.638Z,32.70
2023-04-10T02:56:45.429Z,32.90
2023-04-10T02:59:15.878Z,34.20
2023-04-10T03:01:49.663Z,32.47
2023-04-10T03:04:19.834Z,32.70
2023-04-10T03:06:49.915Z,32.93
2023-04-10T03:09:19.737Z,35.80
2023-04-10T03:11:49.639Z,34.63
2023-04-10T03:14:20.026Z,33.20
2023-04-10T03:16:52.511Z,33.23
2023-04-10T03:19:22.383Z,33.23
2023-04-10T03:21:52.640Z,32.43
2023-04-10T03:24:24.285Z,33.23
2023-04-10T03:26:54.129Z,32.60
2023-04-10T03:29:23.998Z,33.13
2023-04-10T03:31:57.664Z,32.10
2023-04-10T03:34:27.892Z,31.33
2023-04-10T03:36:57.742Z,32.40
2023-04-10T03:39:32.153Z,32.63
2023-04-10T03:42:01.973Z,30.90
2023-04-10T03:44:31.955Z,31.53
2023-04-10T03:47:04.507Z,31.43
2023-04-10T03:49:34.740Z,31.43
2023-04-10T03:52:04.815Z,31.63
2023-04-10T03:54:37.811Z,32.07
2023-04-10T03:57:08.058Z,31.80
2023-04-10T03:59:38.938Z,30.20
2023-04-10T04:02:12.569Z,32.07
2023-04-10T04:04:42.938Z,30.03
2023-04-10T04:07:13.982Z,30.67
2023-04-10T04:09:44.031Z,31.87
2023-04-10T04:12:13.850Z,30.87
2023-04-10T04:14:44.969Z,31.23
2023-04-10T04:17:17.372Z,31.63
2023-04-10T04:19:48.770Z,32.13
2023-04-10T04:22:18.691Z,36.43
2023-04-10T04:24:48.470Z,32.53
2023-04-10T04:27:18.301Z,32.97
2023-04-10T04:29:48.157Z,30.67
2023-04-10T04:32:21.013Z,32.57
2023-04-10T04:34:50.935Z,31.27
2023-04-10T04:37:20.843Z,35.17
2023-04-10T04:39:50.941Z,34.73
2023-04-10T04:42:20.805Z,33.53
2023-04-10T04:44:52.619Z,34.57
2023-04-10T04:47:25.392Z,33.87
2023-04-10T04:49:55.311Z,35.00
2023-04-10T04:52:26.589Z,36.20
2023-04-10T04:54:56.397Z,33.77
2023-04-10T04:57:26.321Z,33.27
2023-04-10T04:59:56.169Z,32.93
2023-04-10T05:02:29.046Z,33.80
2023-04-10T05:04:59.057Z,35.27
2023-04-10T05:07:28.902Z,32.10
2023-04-10T05:09:58.934Z,33.50
2023-04-10T05:12:28.770Z,33.07
2023-04-10T05:15:00.871Z,35.87
2023-04-10T05:17:33.442Z,32.57
2023-04-10T05:20:03.557Z,34.67
2023-04-10T05:22:34.085Z,34.73
2023-04-10T05:25:04.030Z,33.90
2023-04-10T05:27:33.841Z,34.07
2023-04-10T05:30:04.835Z,37.20
2023-04-10T05:32:37.298Z,35.10
2023-04-10T05:35:07.910Z,35.30
2023-04-10T05:37:40.360Z,34.87
2023-04-10T05:40:12.513Z,36.10
2023-04-10T05:42:42.342Z,36.20
2023-04-10T05:45:15.315Z,38.10
2023-04-10T05:47:47.923Z,35.70
2023-04-10T05:50:21.523Z,37.37
2023-04-10T05:52:55.096Z,35.60
2023-04-10T05:55:28.005Z,34.47
2023-04-10T05:58:01.211Z,34.80
2023-04-10T06:00:32.844Z,36.80
2023-04-10T06:03:06.402Z,34.83
2023-04-10T06:05:36.495Z,34.37
2023-04-10T06:08:06.773Z,35.20
2023-04-10T06:10:36.990Z,35.40
2023-04-10T06:13:11.016Z,33.60
2023-04-10T06:15:41.233Z,33.93
2023-04-10T06:18:13.753Z,34.53
2023-04-10T06:20:43.899Z,35.57
2023-04-10T06:23:14.255Z,33.10
2023-04-10T06:25:44.382Z,33.67
2023-04-10T06:28:14.421Z,31.30
2023-04-10T06:30:46.636Z,32.63
2023-04-10T06:33:25.473Z,30.17
2023-04-10T06:35:56.245Z,30.70
2023-04-10T06:38:26.487Z,28.87
2023-04-10T06:40:56.496Z,29.63
2023-04-10T06:43:29.273Z,31.00
2023-04-10T06:45:59.317Z,28.53
2023-04-10T06:48:33.233Z,29.67
2023-04-10T06:51:03.880Z,29.00
2023-04-10T06:53:34.038Z,28.77
2023-04-10T06:56:04.029Z,29.13
2023-04-10T06:58:34.045Z,29.40
2023-04-10T07:01:05.181Z,27.33
2023-04-10T07:03:38.474Z,26.63
2023-04-10T07:06:09.002Z,28.33
2023-04-10T07:08:40.086Z,26.33
2023-04-10T07:11:10.156Z,25.57
2023-04-10T07:13:40.295Z,27.10
2023-04-10T07:16:12.766Z,25.30
2023-04-10T07:18:46.962Z,26.40
2023-04-10T07:21:17.385Z,24.93
2023-04-10T07:23:47.430Z,25.33
2023-04-10T07:26:17.892Z,25.23
2023-04-10T07:28:47.792Z,25.30
2023-04-10T07:31:18.329Z,23.77
2023-04-10T07:33:51.098Z,24.73
2023-04-10T07:36:20.930Z,25.10
2023-04-10T07:38:56.292Z,24.90
2023-04-10T07:41:26.376Z,23.33
2023-04-10T07:43:56.267Z,26.10
2023-04-10T07:46:26.948Z,25.07
2023-04-10T07:49:00.274Z,25.05
2023-04-10T07:51:32.780Z,25.17
2023-04-10T07:54:02.593Z,24.50
2023-04-10T07:56:33.100Z,24.65
2023-04-10T07:59:03.732Z,21.75
2023-04-10T08:01:35.554Z,26.55
2023-04-10T08:04:08.500Z,24.00
2023-04-10T08:06:47.236Z,23.13
2023-04-10T08:09:18.238Z,23.65
2023-04-10T08:11:48.413Z,23.17
2023-04-10T08:14:18.707Z,25.85
2023-04-10T08:16:48.818Z,23.10
2023-04-10T08:19:22.147Z,22.58
2023-04-10T08:21:52.033Z,22.73
2023-04-10T08:24:23.172Z,22.45
2023-04-10T08:26:53.072Z,23.00
2023-04-10T08:31:54.832Z,22.15
2023-04-10T08:34:27.409Z,22.52
2023-04-10T08:36:57.460Z,22.15
2023-04-10T08:39:27.642Z,21.67
2023-04-10T08:41:57.697Z,23.60
2023-04-10T08:44:27.561Z,20.92
2023-04-10T08:47:01.742Z,22.48
2023-04-10T08:49:45.420Z,21.98
2023-04-10T08:52:18.566Z,21.38
2023-04-10T08:54:59.266Z,20.50
2023-04-10T08:57:29.521Z,20.05
2023-04-10T09:00:06.738Z,20.88
2023-04-10T09:02:46.360Z,20.20
2023-04-10T09:05:18.965Z,19.27
2023-04-10T09:07:48.805Z,20.40
2023-04-10T09:10:18.958Z,19.23
2023-04-10T09:12:50.434Z,19.73
2023-04-10T09:15:20.299Z,20.70
2023-04-10T09:18:01.580Z,18.65
2023-04-10T09:20:35.324Z,20.67
2023-04-10T09:23:05.198Z,18.55
2023-04-10T09:25:39.210Z,18.80
2023-04-10T09:28:11.532Z,19.05
2023-04-10T09:30:43.529Z,18.63
2023-04-10T09:33:27.839Z,17.67
2023-04-10T09:36:01.771Z,16.25
2023-04-10T09:38:36.294Z,16.23
2023-04-10T09:41:10.953Z,18.00
2023-04-10T09:43:43.668Z,16.67
2023-04-10T09:46:13.592Z,17.30
2023-04-10T09:48:59.705Z,16.35
2023-04-10T09:51:36.700Z,15.27
2023-04-10T09:54:07.109Z,14.93
2023-04-10T09:56:41.915Z,14.93
2023-04-10T09:59:12.076Z,15.88
2023-04-10T10:01:42.910Z,14.98
2023-04-10T10:04:16.197Z,14.30
2023-04-10T10:06:49.357Z,14.88
2023-04-10T10:09:19.379Z,14.82
2023-04-10T10:11:51.596Z,14.90
2023-04-10T10:14:25.874Z,14.45
2023-04-10T10:17:02.591Z,13.63
2023-04-10T10:19:36.562Z,12.73
2023-04-10T10:22:10.433Z,13.52
2023-04-10T10:24:44.366Z,13.02
2023-04-10T10:27:15.123Z,13.20
2023-04-10T10:29:47.058Z,14.15
2023-04-10T10:32:19.568Z,12.18
2023-04-10T10:34:50.190Z,12.57
2023-04-10T10:37:23.122Z,12.15
2023-04-10T10:40:02.415Z,11.82
2023-04-10T10:42:39.674Z,12.05
2023-04-10T10:45:15.720Z,11.73
2023-04-10T10:48:01.896Z,11.27
2023-04-10T10:50:54.437Z,12.45
2023-04-10T10:53:41.137Z,11.02
2023-04-10T10:56:38.038Z,12.18
2023-04-10T10:59:07.868Z,11.45
2023-04-10T11:01:39.996Z,10.20
2023-04-10T11:04:39.752Z,9.93
2023-04-10T11:07:09.748Z,9.68
2023-04-10T11:09:54.706Z,8.88
2023-04-10T11:12:31.468Z,8.60
2023-04-10T11:15:03.263Z,9.95
2023-04-10T11:17:52.598Z,9.13
2023-04-10T11:20:27.552Z,8.93
2023-04-10T11:23:14.262Z,9.27
2023-04-10T11:25:54.794Z,8.32
2023-04-10T11:28:37.961Z,8.40
2023-04-10T11:31:22.284Z,7.63
2023-04-10T11:33:57.770Z,8.02
2023-04-10T11:36:30.919Z,9.07
2023-04-10T11:39:09.094Z,7.85
2023-04-10T11:41:43.157Z,8.20
2023-04-10T11:44:16.170Z,7.68
2023-04-10T11:46:48.042Z,8.32
2023-04-10T11:49:22.172Z,8.35
2023-04-10T11:51:53.395Z,8.43
2023-04-10T11:54:26.186Z,7.82
2023-04-10T11:57:03.750Z,7.55
2023-04-10T11:59:35.297Z,7.78
2023-04-10T12:02:10.451Z,7.05
2023-04-10T12:04:40.720Z,7.70
2023-04-10T12:07:11.552Z,7.10
2023-04-10T12:09:41.745Z,6.80
2023-04-10T12:12:15.496Z,7.40
2023-04-10T12:14:46.891Z,6.78
2023-04-10T12:17:17.126Z,6.60
2023-04-10T12:19:47.389Z,6.68
2023-04-10T12:22:17.374Z,6.35
2023-04-10T12:24:49.410Z,6.00
2023-04-10T12:27:23.837Z,5.70
2023-04-10T12:29:54.834Z,6.18
2023-04-10T12:32:25.216Z,6.28
2023-04-10T12:34:57.675Z,6.50
2023-04-10T12:37:27.940Z,5.57
2023-04-10T12:40:11.375Z,5.88
2023-04-10T12:42:49.842Z,5.50
2023-04-10T12:45:19.717Z,5.70
2023-04-10T12:47:52.019Z,5.70
2023-04-10T12:50:23.693Z,4.80
2023-04-10T12:53:07.740Z,5.07
2023-04-10T12:55:37.766Z,4.95
2023-04-10T12:58:23.042Z,5.53
2023-04-10T13:00:53.080Z,5.30
2023-04-10T13:03:23.031Z,5.65
2023-04-10T13:05:53.620Z,4.97
2023-04-10T13:08:24.123Z,5.53
2023-04-10T13:10:55.217Z,5.88
2023-04-10T13:13:28.425Z,6.40
2023-04-10T13:15:58.512Z,5.75
2023-04-10T13:18:28.427Z,5.47
2023-04-10T13:20:58.215Z,5.72
2023-04-10T13:23:28.053Z,5.07
2023-04-10T13:26:03.125Z,5.72
2023-04-10T13:28:37.117Z,5.63
2023-04-10T13:31:07.080Z,5.57
2023-04-10T13:33:36.940Z,6.03
2023-04-10T13:36:07.382Z,6.13
2023-04-10T13:38:37.262Z,5.90
2023-04-10T13:41:07.633Z,6.55
2023-04-10T13:43:40.298Z,9.93
2023-04-10T13:46:10.644Z,6.60
2023-04-10T13:48:41.868Z,6.35
2023-04-10T13:51:13.914Z,5.40
2023-04-10T13:53:43.787Z,5.80
2023-04-10T13:56:13.629Z,5.72
2023-04-10T13:58:48.762Z,6.50
2023-04-10T14:01:20.198Z,6.32
2023-04-10T14:03:50.294Z,6.80
2023-04-10T14:06:20.207Z,5.80
2023-04-10T14:08:50.449Z,5.53
2023-04-10T14:11:20.286Z,6.32
2023-04-10T14:13:52.771Z,5.85
2023-04-10T14:16:22.869Z,6.03
2023-04-10T14:18:52.979Z,6.40
2023-04-10T14:21:23.050Z,5.95
2023-04-10T14:23:52.829Z,6.47
2023-04-10T14:26:28.000Z,6.22
2023-04-10T14:29:00.431Z,5.63
2023-04-10T14:31:30.351Z,6.15
2023-04-10T14:34:00.197Z,6.10
2023-04-10T14:36:33.069Z,5.65
2023-04-10T14:39:07.724Z,6.15
2023-04-10T14:41:37.577Z,6.35
2023-04-10T14:44:09.995Z,5.80
2023-04-10T14:46:40.280Z,6.30
2023-04-10T14:49:11.974Z,6.30
2023-04-10T14:51:41.923Z,5.95
2023-04-10T14:54:11.735Z,6.38
2023-04-10T14:56:41.674Z,7.03
2023-04-10T14:59:14.910Z,6.68
2023-04-10T15:01:44.933Z,6.35
2023-04-10T15:04:14.964Z,7.03
2023-04-10T15:06:44.819Z,7.18
2023-04-10T15:09:14.726Z,7.43
2023-04-10T15:11:44.554Z,6.00
2023-04-10T15:14:17.019Z,6.30
2023-04-10T15:16:47.604Z,6.70
2023-04-10T15:19:17.466Z,6.47
2023-04-10T15:21:47.270Z,6.35
2023-04-10T15:24:20.216Z,7.32
2023-04-10T15:26:50.392Z,6.97
2023-04-10T15:29:22.910Z,6.55
2023-04-10T15:31:52.764Z,6.30
2023-04-10T15:34:22.680Z,6.88
2023-04-10T15:36:52.468Z,6.57
2023-04-10T15:39:25.354Z,6.78
2023-04-10T15:41:56.098Z,6.05
2023-04-10T15:44:30.892Z,7.05
2023-04-10T15:47:00.779Z,6.80
2023-04-10T15:49:37.712Z,7.03
2023-04-10T15:52:08.976Z,7.05
2023-04-10T15:54:38.825Z,7.05
2023-04-10T15:57:08.755Z,6.78
2023-04-10T15:59:41.234Z,7.18
2023-04-10T16:02:11.280Z,7.00
2023-04-10T16:04:41.339Z,6.80
2023-04-10T16:07:13.196Z,7.20
2023-04-10T16:09:42.989Z,7.15
2023-04-10T16:12:14.189Z,6.70
2023-04-10T16:14:48.175Z,6.68
2023-04-10T16:17:18.056Z,6.78
2023-04-10T16:19:47.954Z,6.65
2023-04-10T16:22:17.802Z,6.53
2023-04-10T16:24:47.609Z,7.00
2023-04-10T16:27:20.459Z,7.30
2023-04-10T16:29:52.984Z,6.78
2023-04-10T16:32:23.353Z,7.18
2023-04-10T16:34:53.278Z,6.63
2023-04-10T16:37:23.121Z,7.43
2023-04-10T16:39:53.001Z,6.73
2023-04-10T16:42:27.436Z,7.63
2023-04-10T16:45:02.271Z,7.20
2023-04-10T16:47:32.248Z,7.57
2023-04-10T16:50:02.101Z,7.60
2023-04-10T16:52:32.407Z,7.00
2023-04-10T16:55:02.252Z,7.20
2023-04-10T16:57:32.335Z,7.53
2023-04-10T17:00:04.944Z,7.50
2023-04-10T17:02:35.672Z,7.37
2023-04-10T17:05:05.579Z,7.18
2023-04-10T17:07:35.543Z,6.53
2023-04-10T17:10:05.366Z,6.30
2023-04-10T17:12:35.215Z,6.95
2023-04-10T17:15:08.564Z,6.88
2023-04-10T17:17:38.448Z,5.97
2023-04-10T17:20:13.193Z,6.53
2023-04-10T17:22:43.191Z,6.70
2023-04-10T17:25:13.925Z,6.20
2023-04-10T17:27:43.832Z,6.40
2023-04-10T17:30:19.794Z,5.80
2023-04-10T17:32:49.725Z,6.63
2023-04-10T17:35:19.661Z,6.20
2023-04-10T17:37:49.513Z,6.43
2023-04-10T17:40:21.272Z,6.47
2023-04-10T17:42:51.220Z,6.63
2023-04-10T17:45:23.842Z,7.70
2023-04-10T17:47:53.805Z,7.72
2023-04-10T17:50:23.972Z,7.57
2023-04-10T17:52:56.826Z,7.13
2023-04-10T17:55:27.808Z,7.13
2023-04-10T17:57:59.952Z,6.80
2023-04-10T18:00:32.808Z,7.00
2023-04-10T18:03:04.425Z,5.97
2023-04-10T18:05:36.941Z,6.20
2023-04-10T18:08:08.138Z,6.03
2023-04-10T18:10:38.072Z,5.30
2023-04-10T18:13:09.275Z,6.43
2023-04-10T18:15:41.666Z,5.22
2023-04-10T18:18:11.528Z,5.32
2023-04-10T18:20:41.404Z,4.70
2023-04-10T18:23:11.311Z,5.20
2023-04-10T18:25:45.696Z,4.90
2023-04-10T18:28:16.984Z,4.70
2023-04-10T18:30:50.688Z,4.70
2023-04-10T18:33:24.052Z,5.18
2023-04-10T18:35:58.373Z,4.37
2023-04-10T18:38:31.295Z,4.82
2023-04-10T18:41:03.461Z,6.93
2023-04-10T18:43:33.310Z,7.15
2023-04-10T18:46:07.342Z,5.68
2023-04-10T18:48:37.900Z,4.90
2023-04-10T18:51:07.943Z,4.30
2023-04-10T18:53:37.754Z,4.20
2023-04-10T18:56:08.016Z,3.73
2023-04-10T18:58:38.437Z,4.03
2023-04-10T19:01:11.953Z,4.30
2023-04-10T19:03:41.895Z,3.67
2023-04-10T19:06:12.445Z,4.13
2023-04-10T19:08:42.269Z,3.90
2023-04-10T19:11:13.328Z,4.03
2023-04-10T19:13:43.194Z,3.93
2023-04-10T19:16:19.717Z,4.20
2023-04-10T19:18:49.809Z,4.28
2023-04-10T19:21:21.223Z,5.33
2023-04-10T19:23:51.608Z,4.60
2023-04-10T19:26:22.277Z,4.60
2023-04-10T19:28:52.185Z,4.47
2023-04-10T19:31:34.202Z,4.60
2023-04-10T19:34:09.364Z,4.40
2023-04-10T19:36:39.372Z,4.68
2023-04-10T19:39:09.288Z,4.77
2023-04-10T19:41:42.404Z,5.40
2023-04-10T19:44:12.405Z,5.28
2023-04-10T19:46:44.886Z,5.88
2023-04-10T19:49:15.538Z,6.90
2023-04-10T19:51:46.154Z,7.10
2023-04-10T19:54:16.005Z,6.50
2023-04-10T19:56:45.940Z,6.20
2023-04-10T19:59:15.795Z,5.90
2023-04-10T20:01:48.836Z,14.90
2023-04-10T20:04:19.009Z,4.03
2023-04-10T20:06:49.523Z,3.50
2023-04-10T20:09:19.324Z,4.67
2023-04-10T20:11:49.135Z,5.00
2023-04-10T20:14:18.923Z,5.57
2023-04-10T20:16:51.397Z,5.67
2023-04-10T20:19:21.411Z,6.03
2023-04-10T20:21:51.212Z,6.53
2023-04-10T20:24:21.070Z,6.53
2023-04-10T20:26:50.971Z,6.10
2023-04-10T20:29:20.789Z,6.60
2023-04-10T20:31:53.205Z,7.93
2023-04-10T20:34:23.077Z,7.50
2023-04-10T20:36:52.899Z,9.13
2023-04-10T20:39:26.662Z,9.63
2023-04-10T20:41:57.453Z,9.68
2023-04-10T20:44:27.509Z,9.17
2023-04-10T20:47:00.006Z,8.13
2023-04-10T20:49:30.107Z,5.73
2023-04-10T20:52:00.036Z,5.43
2023-04-10T20:54:31.380Z,4.80
2023-04-10T20:57:02.013Z,5.43
2023-04-10T20:59:32.194Z,4.50
2023-04-10T21:02:04.661Z,5.40
2023-04-10T21:04:34.973Z,5.53
2023-04-10T21:07:07.093Z,5.47
2023-04-10T21:09:36.889Z,5.83
2023-04-10T21:12:07.533Z,5.88
2023-04-10T21:14:37.316Z,5.47
2023-04-10T21:17:09.818Z,6.10
2023-04-10T21:19:39.654Z,5.93
2023-04-10T21:22:10.496Z,5.30
2023-04-10T21:24:40.368Z,6.27
2023-04-10T21:27:10.401Z,6.23
2023-04-10T21:29:40.205Z,7.37
2023-04-10T21:32:12.641Z,6.87
2023-04-10T21:34:42.478Z,6.00
2023-04-10T21:37:12.313Z,6.03
2023-04-10T21:39:45.791Z,6.33
2023-04-10T21:42:15.656Z,6.80
2023-04-10T21:44:45.489Z,6.22
2023-04-10T21:47:17.934Z,6.03
2023-04-10T21:49:47.816Z,5.63
2023-04-10T21:52:17.619Z,5.60
2023-04-10T21:54:47.437Z,5.90
2023-04-10T21:57:17.238Z,5.63
2023-04-10T21:59:47.056Z,5.63
2023-04-10T22:02:21.217Z,5.90
2023-04-10T22:04:54.468Z,5.47
2023-04-10T22:07:24.832Z,5.53
2023-04-10T22:09:54.609Z,5.33
2023-04-10T22:12:24.417Z,4.90
2023-04-10T22:14:54.299Z,5.37
2023-04-10T22:17:27.407Z,5.27
2023-04-10T22:19:57.303Z,5.33
2023-04-10T22:22:27.238Z,5.47
2023-04-10T22:24:57.044Z,5.53
2023-04-10T22:27:27.042Z,5.33
2023-04-10T22:30:03.208Z,5.70
2023-04-10T22:32:39.966Z,5.63
2023-04-10T22:35:11.248Z,5.13
2023-04-10T22:37:41.080Z,5.43
2023-04-10T22:40:15.246Z,5.63
2023-04-10T22:42:47.256Z,5.20
2023-04-10T22:45:17.519Z,5.30
2023-04-10T22:47:49.930Z,5.73
2023-04-10T22:50:20.010Z,5.10
2023-04-10T22:52:49.940Z,5.03
2023-04-10T22:55:20.137Z,5.80
2023-04-10T22:57:51.217Z,5.78
2023-04-10T23:00:21.393Z,5.18
2023-04-10T23:02:53.872Z,5.47
2023-04-10T23:05:23.726Z,5.90
2023-04-10T23:07:53.531Z,5.93
2023-04-10T23:10:23.338Z,5.50
2023-04-10T23:12:53.134Z,5.90
2023-04-10T23:15:23.161Z,6.57
2023-04-10T23:17:56.045Z,6.10
2023-04-10T23:20:25.894Z,6.67
2023-04-10T23:22:57.705Z,6.20
2023-04-10T23:25:27.775Z,6.80
2023-04-10T23:27:59.620Z,6.43
2023-04-10T23:30:30.278Z,6.90
2023-04-10T23:33:03.059Z,6.73
2023-04-10T23:35:33.473Z,6.93
2023-04-10T23:38:03.347Z,6.77
2023-04-10T23:40:33.141Z,6.37
2023-04-10T23:43:03.005Z,5.80
2023-04-10T23:45:32.832Z,5.30
2023-04-10T23:48:06.102Z,4.43
2023-04-10T23:50:35.982Z,5.23
2023-04-10T23:53:08.794Z,4.57
2023-04-10T23:55:38.827Z,4.63
2023-04-10T23:58:09.430Z,4.37
